sensor_id;sensor_type;location;lat;lon;timestamp;temperature;humidity
12688;DHT22;6408;59.388;17.798;2024-01-25T00:00:58;1.40;99.90
12688;DHT22;6408;59.388;17.798;2024-01-25T00:03:27;1.40;99.90
12688;DHT22;6408;59.388;17.798;2024-01-25T00:05:55;1.50;99.90
12688;DHT22;6408;59.388;17.798;2024-01-25T00:08:23;1.40;99.90
12688;DHT22;6408;59.388;17.798;2024-01-25T00:10:50;1.50;99.90
12688;DHT22;6408;59.388;17.798;2024-01-25T00:13:18;1.40;99.90
12688;DHT22;6408;59.388;17.798;2024-01-25T00:15:48;1.40;99.90
12688;DHT22;6408;59.388;17.798;2024-01-25T00:18:16;1.40;99.90
12688;DHT22;6408;59.388;17.798;2024-01-25T00:20:45;1.40;99.90
12688;DHT22;6408;59.388;17.798;2024-01-25T00:23:12;1.40;99.90
12688;DHT22;6408;59.388;17.798;2024-01-25T00:25:39;1.40;99.90
12688;DHT22;6408;59.388;17.798;2024-01-25T00:28:07;1.40;99.90
12688;DHT22;6408;59.388;17.798;2024-01-25T00:30:35;1.40;99.90
12688;DHT22;6408;59.388;17.798;2024-01-25T00:33:04;1.40;99.90
12688;DHT22;6408;59.388;17.798;2024-01-25T00:35:34;1.40;99.90
12688;DHT22;6408;59.388;17.798;2024-01-25T00:38:01;1.40;99.90
12688;DHT22;6408;59.388;17.798;2024-01-25T00:40:29;1.40;99.90
12688;DHT22;6408;59.388;17.798;2024-01-25T00:43:00;1.40;99.90
12688;DHT22;6408;59.388;17.798;2024-01-25T00:45:28;1.40;99.90
12688;DHT22;6408;59.388;17.798;2024-01-25T00:47:57;1.40;99.90
12688;DHT22;6408;59.388;17.798;2024-01-25T00:50:27;1.40;99.90
12688;DHT22;6408;59.388;17.798;2024-01-25T00:52:55;1.40;99.90
12688;DHT22;6408;59.388;17.798;2024-01-25T00:55:22;1.40;99.90
12688;DHT22;6408;59.388;17.798;2024-01-25T00:57:50;1.40;99.90
12688;DHT22;6408;59.388;17.798;2024-01-25T01:00:21;1.50;99.90
12688;DHT22;6408;59.388;17.798;2024-01-25T01:02:49;1.40;99.90
12688;DHT22;6408;59.388;17.798;2024-01-25T01:05:16;1.50;99.90
12688;DHT22;6408;59.388;17.798;2024-01-25T01:07:47;1.40;99.90
12688;DHT22;6408;59.388;17.798;2024-01-25T01:10:15;1.50;99.90
12688;DHT22;6408;59.388;17.798;2024-01-25T01:12:43;1.50;99.90
12688;DHT22;6408;59.388;17.798;2024-01-25T01:15:10;1.50;99.90
12688;DHT22;6408;59.388;17.798;2024-01-25T01:17:51;1.50;99.90
12688;DHT22;6408;59.388;17.798;2024-01-25T01:20:18;1.50;99.90
12688;DHT22;6408;59.388;17.798;2024-01-25T01:22:51;1.50;99.90
12688;DHT22;6408;59.388;17.798;2024-01-25T01:25:19;1.60;99.90
12688;DHT22;6408;59.388;17.798;2024-01-25T01:27:46;1.50;99.90
12688;DHT22;6408;59.388;17.798;2024-01-25T01:30:14;1.50;99.90
12688;DHT22;6408;59.388;17.798;2024-01-25T01:32:44;1.50;99.90
12688;DHT22;6408;59.388;17.798;2024-01-25T01:35:13;1.50;99.90
12688;DHT22;6408;59.388;17.798;2024-01-25T01:37:40;1.50;99.90
12688;DHT22;6408;59.388;17.798;2024-01-25T01:40:10;1.50;99.90
12688;DHT22;6408;59.388;17.798;2024-01-25T01:42:38;1.50;99.90
12688;DHT22;6408;59.388;17.798;2024-01-25T01:45:06;1.50;99.90
12688;DHT22;6408;59.388;17.798;2024-01-25T01:47:34;1.50;99.90
12688;DHT22;6408;59.388;17.798;2024-01-25T01:50:02;1.50;99.90
12688;DHT22;6408;59.388;17.798;2024-01-25T01:52:37;1.50;99.90
12688;DHT22;6408;59.388;17.798;2024-01-25T01:55:05;1.50;99.90
12688;DHT22;6408;59.388;17.798;2024-01-25T01:57:35;1.50;99.90
12688;DHT22;6408;59.388;17.798;2024-01-25T02:00:09;1.50;99.90
12688;DHT22;6408;59.388;17.798;2024-01-25T02:02:36;1.50;99.90
12688;DHT22;6408;59.388;17.798;2024-01-25T02:05:09;1.50;99.90
12688;DHT22;6408;59.388;17.798;2024-01-25T02:07:43;1.50;99.90
12688;DHT22;6408;59.388;17.798;2024-01-25T02:10:13;1.60;99.90
12688;DHT22;6408;59.388;17.798;2024-01-25T02:12:46;1.50;99.90
12688;DHT22;6408;59.388;17.798;2024-01-25T02:15:19;1.50;99.90
12688;DHT22;6408;59.388;17.798;2024-01-25T02:17:50;1.50;99.90
12688;DHT22;6408;59.388;17.798;2024-01-25T02:20:18;1.50;99.90
12688;DHT22;6408;59.388;17.798;2024-01-25T02:22:47;1.50;99.90
12688;DHT22;6408;59.388;17.798;2024-01-25T02:25:16;1.50;99.90
12688;DHT22;6408;59.388;17.798;2024-01-25T02:27:46;1.50;99.90
12688;DHT22;6408;59.388;17.798;2024-01-25T02:30:24;1.60;99.90
12688;DHT22;6408;59.388;17.798;2024-01-25T02:32:52;1.50;99.90
12688;DHT22;6408;59.388;17.798;2024-01-25T02:35:21;1.50;99.90
12688;DHT22;6408;59.388;17.798;2024-01-25T02:38:05;1.50;99.90
12688;DHT22;6408;59.388;17.798;2024-01-25T02:40:34;1.50;99.90
12688;DHT22;6408;59.388;17.798;2024-01-25T02:43:01;1.50;99.90
12688;DHT22;6408;59.388;17.798;2024-01-25T02:45:28;1.50;99.90
12688;DHT22;6408;59.388;17.798;2024-01-25T02:47:55;1.50;99.90
12688;DHT22;6408;59.388;17.798;2024-01-25T02:50:23;1.50;99.90
12688;DHT22;6408;59.388;17.798;2024-01-25T02:52:54;1.50;99.90
12688;DHT22;6408;59.388;17.798;2024-01-25T02:55:29;1.50;99.90
12688;DHT22;6408;59.388;17.798;2024-01-25T02:57:57;1.50;99.90
12688;DHT22;6408;59.388;17.798;2024-01-25T03:00:28;1.50;99.90
12688;DHT22;6408;59.388;17.798;2024-01-25T03:03:05;1.50;99.90
12688;DHT22;6408;59.388;17.798;2024-01-25T03:05:40;1.50;99.90
12688;DHT22;6408;59.388;17.798;2024-01-25T03:08:15;1.40;99.90
12688;DHT22;6408;59.388;17.798;2024-01-25T03:10:51;1.50;99.90
12688;DHT22;6408;59.388;17.798;2024-01-25T03:13:19;1.50;99.90
12688;DHT22;6408;59.388;17.798;2024-01-25T03:15:49;1.50;99.90
12688;DHT22;6408;59.388;17.798;2024-01-25T03:18:16;1.40;99.90
12688;DHT22;6408;59.388;17.798;2024-01-25T03:20:44;1.50;99.90
12688;DHT22;6408;59.388;17.798;2024-01-25T03:23:11;1.50;99.90
12688;DHT22;6408;59.388;17.798;2024-01-25T03:25:40;1.50;99.90
12688;DHT22;6408;59.388;17.798;2024-01-25T03:28:09;1.50;99.90
12688;DHT22;6408;59.388;17.798;2024-01-25T03:30:40;1.40;99.90
12688;DHT22;6408;59.388;17.798;2024-01-25T03:33:07;1.40;99.90
12688;DHT22;6408;59.388;17.798;2024-01-25T03:35:46;1.40;99.90
12688;DHT22;6408;59.388;17.798;2024-01-25T03:38:13;1.40;99.90
12688;DHT22;6408;59.388;17.798;2024-01-25T03:40:40;1.40;99.90
12688;DHT22;6408;59.388;17.798;2024-01-25T03:43:09;1.40;99.90
12688;DHT22;6408;59.388;17.798;2024-01-25T03:45:40;1.40;99.90
12688;DHT22;6408;59.388;17.798;2024-01-25T03:48:13;1.40;99.90
12688;DHT22;6408;59.388;17.798;2024-01-25T03:50:45;1.40;99.90
12688;DHT22;6408;59.388;17.798;2024-01-25T03:53:14;1.30;99.90
12688;DHT22;6408;59.388;17.798;2024-01-25T03:55:43;1.30;99.90
12688;DHT22;6408;59.388;17.798;2024-01-25T03:58:12;1.30;99.90
12688;DHT22;6408;59.388;17.798;2024-01-25T04:00:39;1.20;99.90
12688;DHT22;6408;59.388;17.798;2024-01-25T04:03:08;1.20;99.90
12688;DHT22;6408;59.388;17.798;2024-01-25T04:05:36;1.20;99.90
12688;DHT22;6408;59.388;17.798;2024-01-25T04:08:04;1.10;99.90
12688;DHT22;6408;59.388;17.798;2024-01-25T04:10:32;1.10;99.90
12688;DHT22;6408;59.388;17.798;2024-01-25T04:13:00;1.10;99.90
12688;DHT22;6408;59.388;17.798;2024-01-25T04:15:29;1.00;99.90
12688;DHT22;6408;59.388;17.798;2024-01-25T04:17:58;1.10;99.90
12688;DHT22;6408;59.388;17.798;2024-01-25T04:20:28;1.10;99.90
12688;DHT22;6408;59.388;17.798;2024-01-25T04:22:57;1.10;99.90
12688;DHT22;6408;59.388;17.798;2024-01-25T04:25:24;1.10;99.90
12688;DHT22;6408;59.388;17.798;2024-01-25T04:27:52;1.10;99.90
12688;DHT22;6408;59.388;17.798;2024-01-25T04:30:20;1.10;99.90
12688;DHT22;6408;59.388;17.798;2024-01-25T04:32:49;1.00;99.90
12688;DHT22;6408;59.388;17.798;2024-01-25T04:35:17;1.10;99.90
12688;DHT22;6408;59.388;17.798;2024-01-25T04:37:52;1.10;99.90
12688;DHT22;6408;59.388;17.798;2024-01-25T04:40:20;1.10;99.90
12688;DHT22;6408;59.388;17.798;2024-01-25T04:42:48;1.10;99.90
12688;DHT22;6408;59.388;17.798;2024-01-25T04:45:15;1.10;99.90
12688;DHT22;6408;59.388;17.798;2024-01-25T04:47:42;1.00;99.90
12688;DHT22;6408;59.388;17.798;2024-01-25T04:50:12;1.10;99.90
12688;DHT22;6408;59.388;17.798;2024-01-25T04:52:41;1.10;99.90
12688;DHT22;6408;59.388;17.798;2024-01-25T04:55:08;1.10;99.90
12688;DHT22;6408;59.388;17.798;2024-01-25T04:57:35;1.00;99.90
12688;DHT22;6408;59.388;17.798;2024-01-25T05:00:04;1.00;99.90
12688;DHT22;6408;59.388;17.798;2024-01-25T05:02:31;0.90;99.90
12688;DHT22;6408;59.388;17.798;2024-01-25T05:04:59;0.90;99.90
12688;DHT22;6408;59.388;17.798;2024-01-25T05:07:27;0.90;99.90
12688;DHT22;6408;59.388;17.798;2024-01-25T05:09:54;0.90;99.90
12688;DHT22;6408;59.388;17.798;2024-01-25T05:12:22;0.90;99.90
12688;DHT22;6408;59.388;17.798;2024-01-25T05:14:53;0.90;99.90
12688;DHT22;6408;59.388;17.798;2024-01-25T05:17:25;0.80;99.90
12688;DHT22;6408;59.388;17.798;2024-01-25T05:19:52;0.90;99.90
12688;DHT22;6408;59.388;17.798;2024-01-25T05:22:20;0.90;99.90
12688;DHT22;6408;59.388;17.798;2024-01-25T05:25:00;0.90;99.90
12688;DHT22;6408;59.388;17.798;2024-01-25T05:27:30;0.90;99.90
12688;DHT22;6408;59.388;17.798;2024-01-25T05:29:57;0.90;99.90
12688;DHT22;6408;59.388;17.798;2024-01-25T05:32:25;0.90;99.90
12688;DHT22;6408;59.388;17.798;2024-01-25T05:34:52;0.80;99.90
12688;DHT22;6408;59.388;17.798;2024-01-25T05:37:19;0.80;99.90
12688;DHT22;6408;59.388;17.798;2024-01-25T05:39:47;0.80;99.90
12688;DHT22;6408;59.388;17.798;2024-01-25T05:42:17;0.80;99.90
12688;DHT22;6408;59.388;17.798;2024-01-25T05:44:44;0.80;99.90
12688;DHT22;6408;59.388;17.798;2024-01-25T05:47:11;0.80;99.90
12688;DHT22;6408;59.388;17.798;2024-01-25T05:49:40;0.80;99.90
12688;DHT22;6408;59.388;17.798;2024-01-25T05:52:07;0.80;99.90
12688;DHT22;6408;59.388;17.798;2024-01-25T05:54:42;0.80;99.90
12688;DHT22;6408;59.388;17.798;2024-01-25T05:57:09;0.80;99.90
12688;DHT22;6408;59.388;17.798;2024-01-25T05:59:38;0.90;99.90
12688;DHT22;6408;59.388;17.798;2024-01-25T06:02:10;0.80;99.90
12688;DHT22;6408;59.388;17.798;2024-01-25T06:04:38;0.80;99.90
12688;DHT22;6408;59.388;17.798;2024-01-25T06:07:08;0.70;99.90
12688;DHT22;6408;59.388;17.798;2024-01-25T06:09:37;0.70;99.90
12688;DHT22;6408;59.388;17.798;2024-01-25T06:12:07;0.70;99.90
12688;DHT22;6408;59.388;17.798;2024-01-25T06:17:34;0.70;99.90
12688;DHT22;6408;59.388;17.798;2024-01-25T06:20:04;0.80;99.90
12688;DHT22;6408;59.388;17.798;2024-01-25T06:22:32;0.80;99.90
12688;DHT22;6408;59.388;17.798;2024-01-25T06:25:06;0.80;99.90
12688;DHT22;6408;59.388;17.798;2024-01-25T06:27:36;0.80;99.90
12688;DHT22;6408;59.388;17.798;2024-01-25T06:30:11;0.70;99.90
12688;DHT22;6408;59.388;17.798;2024-01-25T06:32:44;0.80;99.90
12688;DHT22;6408;59.388;17.798;2024-01-25T06:35:13;0.80;99.90
12688;DHT22;6408;59.388;17.798;2024-01-25T06:37:41;0.80;99.90
12688;DHT22;6408;59.388;17.798;2024-01-25T06:40:09;0.80;99.90
12688;DHT22;6408;59.388;17.798;2024-01-25T06:42:37;0.80;99.90
12688;DHT22;6408;59.388;17.798;2024-01-25T06:45:05;0.80;99.90
12688;DHT22;6408;59.388;17.798;2024-01-25T06:47:32;0.70;99.90
12688;DHT22;6408;59.388;17.798;2024-01-25T06:50:04;0.60;99.90
12688;DHT22;6408;59.388;17.798;2024-01-25T06:52:33;0.60;99.90
12688;DHT22;6408;59.388;17.798;2024-01-25T06:55:00;0.70;99.90
12688;DHT22;6408;59.388;17.798;2024-01-25T06:57:32;0.60;99.90
12688;DHT22;6408;59.388;17.798;2024-01-25T07:00:05;0.60;99.90
12688;DHT22;6408;59.388;17.798;2024-01-25T07:02:46;0.60;99.90
12688;DHT22;6408;59.388;17.798;2024-01-25T07:05:17;0.60;99.90
12688;DHT22;6408;59.388;17.798;2024-01-25T07:07:45;0.60;99.90
12688;DHT22;6408;59.388;17.798;2024-01-25T07:11:05;0.60;99.90
12688;DHT22;6408;59.388;17.798;2024-01-25T07:13:51;0.60;99.90
12688;DHT22;6408;59.388;17.798;2024-01-25T07:16:18;0.60;99.90
12688;DHT22;6408;59.388;17.798;2024-01-25T07:18:46;0.60;99.90
12688;DHT22;6408;59.388;17.798;2024-01-25T07:21:15;0.60;99.90
12688;DHT22;6408;59.388;17.798;2024-01-25T07:23:42;0.60;99.90
12688;DHT22;6408;59.388;17.798;2024-01-25T07:26:17;0.60;99.90
12688;DHT22;6408;59.388;17.798;2024-01-25T07:28:45;0.50;99.90
12688;DHT22;6408;59.388;17.798;2024-01-25T07:31:19;0.50;99.90
12688;DHT22;6408;59.388;17.798;2024-01-25T07:33:56;0.50;99.90
12688;DHT22;6408;59.388;17.798;2024-01-25T07:36:25;0.50;99.90
12688;DHT22;6408;59.388;17.798;2024-01-25T07:38:53;0.50;99.90
12688;DHT22;6408;59.388;17.798;2024-01-25T07:41:20;0.50;99.90
12688;DHT22;6408;59.388;17.798;2024-01-25T07:43:50;0.50;99.90
12688;DHT22;6408;59.388;17.798;2024-01-25T07:46:21;0.50;99.90
12688;DHT22;6408;59.388;17.798;2024-01-25T07:48:54;0.50;99.90
12688;DHT22;6408;59.388;17.798;2024-01-25T07:51:28;0.50;99.90
12688;DHT22;6408;59.388;17.798;2024-01-25T07:53:56;0.50;99.90
12688;DHT22;6408;59.388;17.798;2024-01-25T07:56:26;0.40;99.90
12688;DHT22;6408;59.388;17.798;2024-01-25T07:58:55;0.50;99.90
12688;DHT22;6408;59.388;17.798;2024-01-25T08:01:25;0.50;99.90
12688;DHT22;6408;59.388;17.798;2024-01-25T08:04:24;0.50;99.90
12688;DHT22;6408;59.388;17.798;2024-01-25T08:07:19;0.50;99.90
12688;DHT22;6408;59.388;17.798;2024-01-25T08:19:48;0.40;99.90
12688;DHT22;6408;59.388;17.798;2024-01-25T08:22:17;0.40;99.90
12688;DHT22;6408;59.388;17.798;2024-01-25T08:24:53;0.30;99.90
12688;DHT22;6408;59.388;17.798;2024-01-25T08:27:20;0.40;99.90
12688;DHT22;6408;59.388;17.798;2024-01-25T08:29:48;0.30;99.90
12688;DHT22;6408;59.388;17.798;2024-01-25T08:32:15;0.40;99.90
12688;DHT22;6408;59.388;17.798;2024-01-25T08:34:42;0.40;99.90
12688;DHT22;6408;59.388;17.798;2024-01-25T08:37:12;0.40;99.90
12688;DHT22;6408;59.388;17.798;2024-01-25T08:39:41;0.40;99.90
12688;DHT22;6408;59.388;17.798;2024-01-25T08:42:11;0.30;99.90
12688;DHT22;6408;59.388;17.798;2024-01-25T08:44:39;0.30;99.90
12688;DHT22;6408;59.388;17.798;2024-01-25T08:47:25;0.40;99.90
12688;DHT22;6408;59.388;17.798;2024-01-25T09:14:25;0.40;99.90
12688;DHT22;6408;59.388;17.798;2024-01-25T10:11:38;0.40;99.90
12688;DHT22;6408;59.388;17.798;2024-01-25T10:15:04;0.40;99.90
12688;DHT22;6408;59.388;17.798;2024-01-25T10:17:35;0.40;99.90
12688;DHT22;6408;59.388;17.798;2024-01-25T10:20:13;0.30;99.90
12688;DHT22;6408;59.388;17.798;2024-01-25T10:22:42;0.30;99.90
12688;DHT22;6408;59.388;17.798;2024-01-25T10:25:24;0.30;99.90
12688;DHT22;6408;59.388;17.798;2024-01-25T10:28:09;0.30;99.90
12688;DHT22;6408;59.388;17.798;2024-01-25T10:30:43;0.40;99.90
12688;DHT22;6408;59.388;17.798;2024-01-25T10:33:14;0.30;99.90
12688;DHT22;6408;59.388;17.798;2024-01-25T10:35:51;0.30;99.90
12688;DHT22;6408;59.388;17.798;2024-01-25T10:38:29;0.40;99.90
12688;DHT22;6408;59.388;17.798;2024-01-25T10:41:25;0.40;99.90
12688;DHT22;6408;59.388;17.798;2024-01-25T10:44:13;0.40;99.90
12688;DHT22;6408;59.388;17.798;2024-01-25T10:46:47;0.40;99.90
12688;DHT22;6408;59.388;17.798;2024-01-25T10:49:18;0.30;99.90
12688;DHT22;6408;59.388;17.798;2024-01-25T10:51:46;0.40;99.90
12688;DHT22;6408;59.388;17.798;2024-01-25T10:54:16;0.40;99.90
12688;DHT22;6408;59.388;17.798;2024-01-25T10:56:46;0.40;99.90
12688;DHT22;6408;59.388;17.798;2024-01-25T10:59:17;0.40;99.90
12688;DHT22;6408;59.388;17.798;2024-01-25T11:01:45;0.40;99.90
12688;DHT22;6408;59.388;17.798;2024-01-25T11:04:15;0.30;99.90
12688;DHT22;6408;59.388;17.798;2024-01-25T11:06:46;0.30;99.90
12688;DHT22;6408;59.388;17.798;2024-01-25T11:09:24;0.30;99.90
12688;DHT22;6408;59.388;17.798;2024-01-25T11:11:54;0.30;99.90
12688;DHT22;6408;59.388;17.798;2024-01-25T11:14:25;0.30;99.90
12688;DHT22;6408;59.388;17.798;2024-01-25T11:17:22;0.30;99.90
12688;DHT22;6408;59.388;17.798;2024-01-25T11:20:07;0.40;99.90
12688;DHT22;6408;59.388;17.798;2024-01-25T11:23:03;0.40;99.90
12688;DHT22;6408;59.388;17.798;2024-01-25T11:25:40;0.40;99.90
12688;DHT22;6408;59.388;17.798;2024-01-25T11:31:24;0.40;99.90
12688;DHT22;6408;59.388;17.798;2024-01-25T11:34:10;0.40;99.90
12688;DHT22;6408;59.388;17.798;2024-01-25T11:36:51;0.40;99.90
12688;DHT22;6408;59.388;17.798;2024-01-25T11:39:29;0.30;99.90
12688;DHT22;6408;59.388;17.798;2024-01-25T11:42:03;0.30;99.90
12688;DHT22;6408;59.388;17.798;2024-01-25T11:44:34;0.40;99.90
12688;DHT22;6408;59.388;17.798;2024-01-25T11:47:05;0.50;99.90
12688;DHT22;6408;59.388;17.798;2024-01-25T11:49:35;0.50;99.90
12688;DHT22;6408;59.388;17.798;2024-01-25T11:52:09;0.50;99.90
12688;DHT22;6408;59.388;17.798;2024-01-25T11:54:55;0.50;99.90
12688;DHT22;6408;59.388;17.798;2024-01-25T11:57:23;0.50;99.90
12688;DHT22;6408;59.388;17.798;2024-01-25T12:00:02;0.50;99.90
12688;DHT22;6408;59.388;17.798;2024-01-25T12:02:43;0.40;99.90
12688;DHT22;6408;59.388;17.798;2024-01-25T12:05:27;0.50;99.90
12688;DHT22;6408;59.388;17.798;2024-01-25T12:07:59;0.50;99.90
12688;DHT22;6408;59.388;17.798;2024-01-25T12:10:26;0.40;99.90
12688;DHT22;6408;59.388;17.798;2024-01-25T12:12:55;0.40;99.90
12688;DHT22;6408;59.388;17.798;2024-01-25T12:15:23;0.40;99.90
12688;DHT22;6408;59.388;17.798;2024-01-25T12:17:58;0.30;99.90
12688;DHT22;6408;59.388;17.798;2024-01-25T12:20:26;0.40;99.90
12688;DHT22;6408;59.388;17.798;2024-01-25T12:22:54;0.40;99.90
12688;DHT22;6408;59.388;17.798;2024-01-25T12:25:25;0.30;99.90
12688;DHT22;6408;59.388;17.798;2024-01-25T12:27:55;0.30;99.90
12688;DHT22;6408;59.388;17.798;2024-01-25T12:30:30;0.40;99.90
12688;DHT22;6408;59.388;17.798;2024-01-25T12:33:04;0.30;99.90
12688;DHT22;6408;59.388;17.798;2024-01-25T12:35:34;0.40;99.90
12688;DHT22;6408;59.388;17.798;2024-01-25T12:38:05;0.40;99.90
12688;DHT22;6408;59.388;17.798;2024-01-25T12:40:34;0.40;99.90
12688;DHT22;6408;59.388;17.798;2024-01-25T12:43:02;0.40;99.90
12688;DHT22;6408;59.388;17.798;2024-01-25T12:45:37;0.40;99.90
12688;DHT22;6408;59.388;17.798;2024-01-25T12:48:10;0.40;99.90
12688;DHT22;6408;59.388;17.798;2024-01-25T12:50:43;0.40;99.90
12688;DHT22;6408;59.388;17.798;2024-01-25T12:53:19;0.50;99.90
12688;DHT22;6408;59.388;17.798;2024-01-25T12:55:54;0.50;99.90
12688;DHT22;6408;59.388;17.798;2024-01-25T12:58:22;0.50;99.90
12688;DHT22;6408;59.388;17.798;2024-01-25T13:00:52;0.40;99.90
12688;DHT22;6408;59.388;17.798;2024-01-25T13:03:21;0.30;99.90
12688;DHT22;6408;59.388;17.798;2024-01-25T13:05:51;0.20;99.90
12688;DHT22;6408;59.388;17.798;2024-01-25T13:08:18;0.30;99.90
12688;DHT22;6408;59.388;17.798;2024-01-25T13:10:54;0.30;99.90
12688;DHT22;6408;59.388;17.798;2024-01-25T13:13:25;0.30;99.90
12688;DHT22;6408;59.388;17.798;2024-01-25T13:15:53;0.30;99.90
12688;DHT22;6408;59.388;17.798;2024-01-25T13:18:23;0.20;99.90
12688;DHT22;6408;59.388;17.798;2024-01-25T13:20:56;0.20;99.90
12688;DHT22;6408;59.388;17.798;2024-01-25T13:23:40;0.30;99.90
12688;DHT22;6408;59.388;17.798;2024-01-25T13:26:23;0.20;99.90
12688;DHT22;6408;59.388;17.798;2024-01-25T13:29:13;0.10;99.90
12688;DHT22;6408;59.388;17.798;2024-01-25T13:31:58;0.20;99.90
12688;DHT22;6408;59.388;17.798;2024-01-25T13:34:55;0.20;99.90
12688;DHT22;6408;59.388;17.798;2024-01-25T13:37:32;0.30;99.90
12688;DHT22;6408;59.388;17.798;2024-01-25T13:40:10;0.20;99.90
12688;DHT22;6408;59.388;17.798;2024-01-25T13:43:14;0.20;99.90
12688;DHT22;6408;59.388;17.798;2024-01-25T13:46:07;0.20;99.90
12688;DHT22;6408;59.388;17.798;2024-01-25T13:48:54;0.20;99.90
12688;DHT22;6408;59.388;17.798;2024-01-25T13:51:50;0.20;99.90
12688;DHT22;6408;59.388;17.798;2024-01-25T13:54:24;0.20;99.90
12688;DHT22;6408;59.388;17.798;2024-01-25T13:56:57;0.20;99.90
12688;DHT22;6408;59.388;17.798;2024-01-25T13:59:27;0.10;99.90
12688;DHT22;6408;59.388;17.798;2024-01-25T14:01:55;0.00;99.90
12688;DHT22;6408;59.388;17.798;2024-01-25T14:04:47;0.00;99.90
12688;DHT22;6408;59.388;17.798;2024-01-25T14:07:16;0.00;99.90
12688;DHT22;6408;59.388;17.798;2024-01-25T14:09:46;0.10;99.90
12688;DHT22;6408;59.388;17.798;2024-01-25T14:12:19;0.00;99.90
12688;DHT22;6408;59.388;17.798;2024-01-25T14:14:46;0.00;99.90
12688;DHT22;6408;59.388;17.798;2024-01-25T14:17:14;-0.10;99.90
12688;DHT22;6408;59.388;17.798;2024-01-25T14:19:41;-0.10;99.90
12688;DHT22;6408;59.388;17.798;2024-01-25T14:22:08;-0.20;99.90
12688;DHT22;6408;59.388;17.798;2024-01-25T14:24:38;-0.10;99.90
12688;DHT22;6408;59.388;17.798;2024-01-25T14:27:05;-0.10;99.90
12688;DHT22;6408;59.388;17.798;2024-01-25T14:29:32;-0.10;99.90
12688;DHT22;6408;59.388;17.798;2024-01-25T14:32:00;-0.10;99.90
12688;DHT22;6408;59.388;17.798;2024-01-25T14:34:28;-0.10;99.90
12688;DHT22;6408;59.388;17.798;2024-01-25T14:36:55;-0.20;99.90
12688;DHT22;6408;59.388;17.798;2024-01-25T14:39:22;-0.20;99.90
12688;DHT22;6408;59.388;17.798;2024-01-25T14:41:52;-0.20;99.90
12688;DHT22;6408;59.388;17.798;2024-01-25T14:44:20;-0.30;99.90
12688;DHT22;6408;59.388;17.798;2024-01-25T14:46:48;-0.30;99.90
12688;DHT22;6408;59.388;17.798;2024-01-25T14:49:25;-0.20;99.90
12688;DHT22;6408;59.388;17.798;2024-01-25T14:51:52;-0.30;99.90
12688;DHT22;6408;59.388;17.798;2024-01-25T14:54:19;-0.30;99.90
12688;DHT22;6408;59.388;17.798;2024-01-25T14:56:47;-0.40;99.90
12688;DHT22;6408;59.388;17.798;2024-01-25T14:59:16;-0.40;99.90
12688;DHT22;6408;59.388;17.798;2024-01-25T15:01:46;-0.30;99.90
12688;DHT22;6408;59.388;17.798;2024-01-25T15:04:14;-0.30;99.90
12688;DHT22;6408;59.388;17.798;2024-01-25T15:06:42;-0.40;99.90
12688;DHT22;6408;59.388;17.798;2024-01-25T15:09:09;-0.30;99.90
12688;DHT22;6408;59.388;17.798;2024-01-25T15:11:37;-0.30;99.90
12688;DHT22;6408;59.388;17.798;2024-01-25T15:14:04;-0.30;99.90
12688;DHT22;6408;59.388;17.798;2024-01-25T15:16:33;-0.30;99.90
12688;DHT22;6408;59.388;17.798;2024-01-25T15:19:01;-0.30;99.90
12688;DHT22;6408;59.388;17.798;2024-01-25T15:21:28;-0.30;99.90
12688;DHT22;6408;59.388;17.798;2024-01-25T15:23:55;-0.20;99.90
12688;DHT22;6408;59.388;17.798;2024-01-25T15:26:22;-0.30;99.90
12688;DHT22;6408;59.388;17.798;2024-01-25T15:28:51;-0.20;99.90
12688;DHT22;6408;59.388;17.798;2024-01-25T15:31:18;-0.20;99.90
12688;DHT22;6408;59.388;17.798;2024-01-25T15:33:46;-0.30;99.90
12688;DHT22;6408;59.388;17.798;2024-01-25T15:36:14;-0.30;99.90
12688;DHT22;6408;59.388;17.798;2024-01-25T15:38:43;-0.30;99.90
12688;DHT22;6408;59.388;17.798;2024-01-25T15:41:10;-0.30;99.90
12688;DHT22;6408;59.388;17.798;2024-01-25T15:43:39;-0.30;99.90
12688;DHT22;6408;59.388;17.798;2024-01-25T15:46:06;-0.30;99.90
12688;DHT22;6408;59.388;17.798;2024-01-25T15:48:33;-0.40;99.90
12688;DHT22;6408;59.388;17.798;2024-01-25T15:51:02;-0.30;99.90
12688;DHT22;6408;59.388;17.798;2024-01-25T15:53:29;-0.40;99.90
12688;DHT22;6408;59.388;17.798;2024-01-25T15:55:57;-0.30;99.90
12688;DHT22;6408;59.388;17.798;2024-01-25T15:58:26;-0.30;99.90
12688;DHT22;6408;59.388;17.798;2024-01-25T16:00:54;-0.30;99.90
12688;DHT22;6408;59.388;17.798;2024-01-25T16:03:21;-0.30;99.90
12688;DHT22;6408;59.388;17.798;2024-01-25T16:05:56;-0.40;99.90
12688;DHT22;6408;59.388;17.798;2024-01-25T16:08:29;-0.40;99.90
12688;DHT22;6408;59.388;17.798;2024-01-25T16:10:57;-0.40;99.90
12688;DHT22;6408;59.388;17.798;2024-01-25T16:13:24;-0.30;99.90
12688;DHT22;6408;59.388;17.798;2024-01-25T16:15:51;-0.30;99.90
12688;DHT22;6408;59.388;17.798;2024-01-25T16:18:19;-0.30;99.90
12688;DHT22;6408;59.388;17.798;2024-01-25T16:20:47;-0.40;99.90
12688;DHT22;6408;59.388;17.798;2024-01-25T16:23:14;-0.40;99.90
12688;DHT22;6408;59.388;17.798;2024-01-25T16:25:43;-0.50;99.90
12688;DHT22;6408;59.388;17.798;2024-01-25T16:28:10;-0.40;99.90
12688;DHT22;6408;59.388;17.798;2024-01-25T16:30:38;-0.40;99.90
12688;DHT22;6408;59.388;17.798;2024-01-25T16:33:05;-0.40;99.90
12688;DHT22;6408;59.388;17.798;2024-01-25T16:35:34;-0.30;99.90
12688;DHT22;6408;59.388;17.798;2024-01-25T16:38:02;-0.40;99.90
12688;DHT22;6408;59.388;17.798;2024-01-25T16:40:30;-0.40;99.90
12688;DHT22;6408;59.388;17.798;2024-01-25T16:42:59;-0.40;99.90
12688;DHT22;6408;59.388;17.798;2024-01-25T16:45:27;-0.40;99.90
12688;DHT22;6408;59.388;17.798;2024-01-25T16:47:54;-0.50;99.90
12688;DHT22;6408;59.388;17.798;2024-01-25T16:50:22;-0.50;99.90
12688;DHT22;6408;59.388;17.798;2024-01-25T16:52:49;-0.50;99.90
12688;DHT22;6408;59.388;17.798;2024-01-25T16:55:17;-0.50;99.90
12688;DHT22;6408;59.388;17.798;2024-01-25T16:57:44;-0.60;99.90
12688;DHT22;6408;59.388;17.798;2024-01-25T17:00:16;-0.50;99.90
12688;DHT22;6408;59.388;17.798;2024-01-25T17:02:47;-0.50;99.90
12688;DHT22;6408;59.388;17.798;2024-01-25T17:05:15;-0.50;99.90
12688;DHT22;6408;59.388;17.798;2024-01-25T17:07:42;-0.50;99.90
12688;DHT22;6408;59.388;17.798;2024-01-25T17:10:10;-0.50;99.90
12688;DHT22;6408;59.388;17.798;2024-01-25T17:12:37;-0.60;99.90
12688;DHT22;6408;59.388;17.798;2024-01-25T17:15:08;-0.50;99.90
12688;DHT22;6408;59.388;17.798;2024-01-25T17:17:38;-0.50;99.90
12688;DHT22;6408;59.388;17.798;2024-01-25T17:20:08;-0.50;99.90
12688;DHT22;6408;59.388;17.798;2024-01-25T17:22:39;-0.60;99.90
12688;DHT22;6408;59.388;17.798;2024-01-25T17:25:07;-0.60;99.90
12688;DHT22;6408;59.388;17.798;2024-01-25T17:27:34;-0.50;99.90
12688;DHT22;6408;59.388;17.798;2024-01-25T17:30:01;-0.50;99.90
12688;DHT22;6408;59.388;17.798;2024-01-25T17:32:28;-0.60;99.90
12688;DHT22;6408;59.388;17.798;2024-01-25T17:34:57;-0.50;99.90
12688;DHT22;6408;59.388;17.798;2024-01-25T17:37:24;-0.50;99.90
12688;DHT22;6408;59.388;17.798;2024-01-25T17:39:52;-0.40;99.90
12688;DHT22;6408;59.388;17.798;2024-01-25T17:42:19;-0.50;99.90